Portada
METAR-TAF:

METAR-TAF

Aeroports :

Aeroport de París-Charles de Gaulle

París-Charles de Gaulle, França

latitud: 49-01N, longitud: 002-32E, altitud: 118 m

Observació

L'informe es va fer fa 26 minuts, a les 14:00 UTC
Vent 13 kt del Nord-Est, variant entre Nord/Nord-Est i Est
Temperatura 11°C
Humitat 43%
Pressió 1026 hPa
Visibilitat 10 km o més
sense núvols per sota de 1500 mi sense presència de cumulonimbus.

METAR: LFPG 311400Z AUTO 05013KT 020V080 CAVOK 11/M01 Q1026 NOSIG

Hora: 16:26 (14:26 UTC)

Pronòstic

L'informe es va fer fa 3 hores i 26 minuts, a les 11:00 UTC
Pronòstic vàlid del 31 a les 12 UTC al 01 a les 18 UTC
Vent 12 kt del Est/Nord-Est
Visibilitat 10 km o més
Núvols disperses a una alçada de 3500 ft
Evolucionant progressivament
l' 31 a les 14 UTC al 31 a les 16 UTC
Visibilitat 10 km o més
sense núvols per sota de 1500 mi sense presència de cumulonimbus.

TAF: LFPG 311100Z 3112/0118 06012KT 9999 SCT035 TX13/3115Z TN00/0106Z BECMG 3114/3116 CAVOK

Observacions i pronòstics meteorològics de més de 4000 aeroports (METAR i TAF).

Les estacions disponibles són els punts grocs i vermells al mapa.

Posi el ratolí al punt desitjat per veure el nom de l'estació.

Feu clic per veure les observacions i els pronòstics meteorològics.

Per canviar el mapa: feu clic els botons verds amb una creu de color negre per apropar; al botó verd amb un guió per allunyar la imatge; o en les fletxes verdes per a mapes adjacents.


METAR-TAF: